sensor_id;sensor_type;location;lat;lon;timestamp;temperature;humidity
19952;DHT22;10137;49.406;19.484;2023-02-13T00:02:09;-2.70;99.90
19952;DHT22;10137;49.406;19.484;2023-02-13T00:04:39;-2.60;99.90
19952;DHT22;10137;49.406;19.484;2023-02-13T00:07:09;-2.50;99.90
19952;DHT22;10137;49.406;19.484;2023-02-13T00:09:37;-2.40;99.90
19952;DHT22;10137;49.406;19.484;2023-02-13T00:12:07;-2.30;99.90
19952;DHT22;10137;49.406;19.484;2023-02-13T00:14:37;-2.40;99.90
19952;DHT22;10137;49.406;19.484;2023-02-13T00:17:06;-2.60;99.90
19952;DHT22;10137;49.406;19.484;2023-02-13T00:19:34;-2.60;99.90
19952;DHT22;10137;49.406;19.484;2023-02-13T00:22:06;-2.70;99.90
19952;DHT22;10137;49.406;19.484;2023-02-13T00:24:35;-2.60;99.90
19952;DHT22;10137;49.406;19.484;2023-02-13T00:27:03;-2.60;99.90
19952;DHT22;10137;49.406;19.484;2023-02-13T00:29:31;-2.70;99.90
19952;DHT22;10137;49.406;19.484;2023-02-13T00:31:59;-2.70;99.90
19952;DHT22;10137;49.406;19.484;2023-02-13T00:34:28;-2.60;99.90
19952;DHT22;10137;49.406;19.484;2023-02-13T00:36:59;-2.70;99.90
19952;DHT22;10137;49.406;19.484;2023-02-13T00:39:37;-2.80;99.90
19952;DHT22;10137;49.406;19.484;2023-02-13T00:42:06;-2.70;99.90
19952;DHT22;10137;49.406;19.484;2023-02-13T00:44:34;-2.60;99.90
19952;DHT22;10137;49.406;19.484;2023-02-13T00:47:03;-2.60;99.90
19952;DHT22;10137;49.406;19.484;2023-02-13T00:49:36;-2.60;99.90
19952;DHT22;10137;49.406;19.484;2023-02-13T00:52:04;-2.50;99.90
19952;DHT22;10137;49.406;19.484;2023-02-13T00:54:33;-2.50;99.90
19952;DHT22;10137;49.406;19.484;2023-02-13T00:57:03;-2.50;99.90
19952;DHT22;10137;49.406;19.484;2023-02-13T00:59:31;-2.50;99.90
19952;DHT22;10137;49.406;19.484;2023-02-13T01:01:59;-2.40;99.90
19952;DHT22;10137;49.406;19.484;2023-02-13T01:04:30;-2.50;99.90
19952;DHT22;10137;49.406;19.484;2023-02-13T01:07:05;-2.60;99.90
19952;DHT22;10137;49.406;19.484;2023-02-13T01:09:33;-2.60;99.90
19952;DHT22;10137;49.406;19.484;2023-02-13T01:12:08;-2.50;99.90
19952;DHT22;10137;49.406;19.484;2023-02-13T01:14:36;-2.50;99.90
19952;DHT22;10137;49.406;19.484;2023-02-13T01:17:04;-2.50;99.90
19952;DHT22;10137;49.406;19.484;2023-02-13T01:19:35;-2.50;99.90
19952;DHT22;10137;49.406;19.484;2023-02-13T01:22:03;-2.40;99.90
19952;DHT22;10137;49.406;19.484;2023-02-13T01:24:31;-2.40;99.90
19952;DHT22;10137;49.406;19.484;2023-02-13T01:26:59;-2.40;99.90
19952;DHT22;10137;49.406;19.484;2023-02-13T01:29:29;-2.40;99.90
19952;DHT22;10137;49.406;19.484;2023-02-13T01:31:58;-2.40;99.90
19952;DHT22;10137;49.406;19.484;2023-02-13T01:34:28;-2.40;99.90
19952;DHT22;10137;49.406;19.484;2023-02-13T01:36:56;-2.40;99.90
19952;DHT22;10137;49.406;19.484;2023-02-13T01:39:27;-2.40;99.90
19952;DHT22;10137;49.406;19.484;2023-02-13T01:41:54;-2.40;99.90
19952;DHT22;10137;49.406;19.484;2023-02-13T01:44:46;-2.30;99.90
19952;DHT22;10137;49.406;19.484;2023-02-13T01:47:19;-2.30;99.90
19952;DHT22;10137;49.406;19.484;2023-02-13T01:49:52;-2.40;99.90
19952;DHT22;10137;49.406;19.484;2023-02-13T01:52:22;-2.40;99.90
19952;DHT22;10137;49.406;19.484;2023-02-13T01:54:51;-2.40;99.90
19952;DHT22;10137;49.406;19.484;2023-02-13T01:57:22;-2.40;99.90
19952;DHT22;10137;49.406;19.484;2023-02-13T01:59:56;-2.40;99.90
19952;DHT22;10137;49.406;19.484;2023-02-13T02:02:26;-2.50;99.90
19952;DHT22;10137;49.406;19.484;2023-02-13T02:04:56;-2.50;99.90
19952;DHT22;10137;49.406;19.484;2023-02-13T02:07:26;-2.60;99.90
19952;DHT22;10137;49.406;19.484;2023-02-13T02:09:59;-2.60;99.90
19952;DHT22;10137;49.406;19.484;2023-02-13T02:12:33;-2.60;99.90
19952;DHT22;10137;49.406;19.484;2023-02-13T02:15:06;-2.60;99.90
19952;DHT22;10137;49.406;19.484;2023-02-13T02:17:37;-2.60;99.90
19952;DHT22;10137;49.406;19.484;2023-02-13T02:20:16;-2.60;99.90
19952;DHT22;10137;49.406;19.484;2023-02-13T02:23:13;-2.70;99.90
19952;DHT22;10137;49.406;19.484;2023-02-13T02:26:09;-2.70;99.90
19952;DHT22;10137;49.406;19.484;2023-02-13T02:32:23;-2.80;99.90
19952;DHT22;10137;49.406;19.484;2023-02-13T02:34:57;-2.70;99.90
19952;DHT22;10137;49.406;19.484;2023-02-13T02:37:42;-2.60;99.90
19952;DHT22;10137;49.406;19.484;2023-02-13T02:40:21;-2.60;99.90
19952;DHT22;10137;49.406;19.484;2023-02-13T02:42:59;-2.60;99.90
19952;DHT22;10137;49.406;19.484;2023-02-13T02:45:38;-2.40;99.90
19952;DHT22;10137;49.406;19.484;2023-02-13T02:48:16;-2.40;99.90
19952;DHT22;10137;49.406;19.484;2023-02-13T02:51:13;-2.40;99.90
19952;DHT22;10137;49.406;19.484;2023-02-13T02:53:50;-2.40;99.90
19952;DHT22;10137;49.406;19.484;2023-02-13T02:56:25;-2.40;99.90
19952;DHT22;10137;49.406;19.484;2023-02-13T02:58:58;-2.40;99.90
19952;DHT22;10137;49.406;19.484;2023-02-13T03:01:46;-2.40;99.90
19952;DHT22;10137;49.406;19.484;2023-02-13T03:04:39;-2.40;99.90
19952;DHT22;10137;49.406;19.484;2023-02-13T03:07:26;-2.40;99.90
19952;DHT22;10137;49.406;19.484;2023-02-13T03:09:56;-2.40;99.90
19952;DHT22;10137;49.406;19.484;2023-02-13T03:12:46;-2.30;99.90
19952;DHT22;10137;49.406;19.484;2023-02-13T03:15:36;-2.30;99.90
19952;DHT22;10137;49.406;19.484;2023-02-13T03:18:26;-2.40;99.90
19952;DHT22;10137;49.406;19.484;2023-02-13T03:21:16;-2.30;99.90
19952;DHT22;10137;49.406;19.484;2023-02-13T03:24:09;-2.10;99.90
19952;DHT22;10137;49.406;19.484;2023-02-13T03:26:48;-2.10;99.90
19952;DHT22;10137;49.406;19.484;2023-02-13T03:29:27;-2.00;99.90
19952;DHT22;10137;49.406;19.484;2023-02-13T03:32:24;-2.00;99.90
19952;DHT22;10137;49.406;19.484;2023-02-13T03:35:00;-1.90;99.90
19952;DHT22;10137;49.406;19.484;2023-02-13T03:37:56;-1.90;99.90
19952;DHT22;10137;49.406;19.484;2023-02-13T03:40:32;-2.00;99.90
19952;DHT22;10137;49.406;19.484;2023-02-13T03:43:09;-2.00;99.90
19952;DHT22;10137;49.406;19.484;2023-02-13T03:45:41;-1.90;99.90
19952;DHT22;10137;49.406;19.484;2023-02-13T03:48:26;-1.80;99.90
19952;DHT22;10137;49.406;19.484;2023-02-13T03:51:13;-1.80;99.90
19952;DHT22;10137;49.406;19.484;2023-02-13T03:53:44;-1.80;99.90
19952;DHT22;10137;49.406;19.484;2023-02-13T03:56:15;-1.80;99.90
19952;DHT22;10137;49.406;19.484;2023-02-13T03:59:02;-1.80;99.90
19952;DHT22;10137;49.406;19.484;2023-02-13T04:01:42;-1.80;99.90
19952;DHT22;10137;49.406;19.484;2023-02-13T04:04:16;-1.80;99.90
19952;DHT22;10137;49.406;19.484;2023-02-13T04:06:48;-1.80;99.90
19952;DHT22;10137;49.406;19.484;2023-02-13T04:09:19;-1.80;99.90
19952;DHT22;10137;49.406;19.484;2023-02-13T04:11:53;-1.80;99.90
19952;DHT22;10137;49.406;19.484;2023-02-13T04:14:27;-1.80;99.90
19952;DHT22;10137;49.406;19.484;2023-02-13T04:17:02;-1.80;99.90
19952;DHT22;10137;49.406;19.484;2023-02-13T04:19:34;-1.90;99.90
19952;DHT22;10137;49.406;19.484;2023-02-13T04:22:01;-1.80;99.90
19952;DHT22;10137;49.406;19.484;2023-02-13T04:24:30;-1.80;99.90
19952;DHT22;10137;49.406;19.484;2023-02-13T04:26:59;-1.80;99.90
19952;DHT22;10137;49.406;19.484;2023-02-13T04:29:28;-1.80;99.90
19952;DHT22;10137;49.406;19.484;2023-02-13T04:31:56;-1.90;99.90
19952;DHT22;10137;49.406;19.484;2023-02-13T04:34:24;-1.90;99.90
19952;DHT22;10137;49.406;19.484;2023-02-13T04:36:51;-1.80;99.90
19952;DHT22;10137;49.406;19.484;2023-02-13T04:39:19;-1.80;99.90
19952;DHT22;10137;49.406;19.484;2023-02-13T04:41:49;-1.90;99.90
19952;DHT22;10137;49.406;19.484;2023-02-13T04:44:18;-1.80;99.90
19952;DHT22;10137;49.406;19.484;2023-02-13T04:46:46;-1.80;99.90
19952;DHT22;10137;49.406;19.484;2023-02-13T04:49:14;-1.90;99.90
19952;DHT22;10137;49.406;19.484;2023-02-13T04:51:43;-1.90;99.90
19952;DHT22;10137;49.406;19.484;2023-02-13T04:54:11;-1.90;99.90
19952;DHT22;10137;49.406;19.484;2023-02-13T04:56:39;-1.90;99.90
19952;DHT22;10137;49.406;19.484;2023-02-13T04:59:09;-1.90;99.90
19952;DHT22;10137;49.406;19.484;2023-02-13T05:01:37;-1.90;99.90
19952;DHT22;10137;49.406;19.484;2023-02-13T05:04:04;-2.00;99.90
19952;DHT22;10137;49.406;19.484;2023-02-13T05:06:33;-2.00;99.90
19952;DHT22;10137;49.406;19.484;2023-02-13T05:09:01;-2.10;99.90
19952;DHT22;10137;49.406;19.484;2023-02-13T05:11:31;-2.10;99.90
19952;DHT22;10137;49.406;19.484;2023-02-13T05:13:59;-2.10;99.90
19952;DHT22;10137;49.406;19.484;2023-02-13T05:16:29;-2.10;99.90
19952;DHT22;10137;49.406;19.484;2023-02-13T05:18:57;-2.00;99.90
19952;DHT22;10137;49.406;19.484;2023-02-13T05:21:25;-2.10;99.90
19952;DHT22;10137;49.406;19.484;2023-02-13T05:24:10;-2.30;99.90
19952;DHT22;10137;49.406;19.484;2023-02-13T05:26:39;-2.30;99.90
19952;DHT22;10137;49.406;19.484;2023-02-13T05:29:08;-2.30;99.90
19952;DHT22;10137;49.406;19.484;2023-02-13T05:31:51;-2.20;99.90
19952;DHT22;10137;49.406;19.484;2023-02-13T05:34:20;-2.10;99.90
19952;DHT22;10137;49.406;19.484;2023-02-13T05:36:47;-2.00;99.90
19952;DHT22;10137;49.406;19.484;2023-02-13T05:39:15;-2.00;99.90
19952;DHT22;10137;49.406;19.484;2023-02-13T05:41:44;-1.90;99.90
19952;DHT22;10137;49.406;19.484;2023-02-13T05:44:16;-1.70;99.90
19952;DHT22;10137;49.406;19.484;2023-02-13T05:46:44;-1.50;99.90
19952;DHT22;10137;49.406;19.484;2023-02-13T05:49:16;-1.60;99.90
19952;DHT22;10137;49.406;19.484;2023-02-13T05:51:44;-1.70;99.90
19952;DHT22;10137;49.406;19.484;2023-02-13T05:54:17;-1.80;99.90
19952;DHT22;10137;49.406;19.484;2023-02-13T05:56:45;-1.80;99.90
19952;DHT22;10137;49.406;19.484;2023-02-13T05:59:16;-1.90;99.90
19952;DHT22;10137;49.406;19.484;2023-02-13T06:01:44;-1.80;99.90
19952;DHT22;10137;49.406;19.484;2023-02-13T06:04:14;-1.80;99.90
19952;DHT22;10137;49.406;19.484;2023-02-13T06:06:42;-1.90;99.90
19952;DHT22;10137;49.406;19.484;2023-02-13T06:09:11;-1.90;99.90
19952;DHT22;10137;49.406;19.484;2023-02-13T06:11:39;-1.90;99.90
19952;DHT22;10137;49.406;19.484;2023-02-13T06:14:07;-1.90;99.90
19952;DHT22;10137;49.406;19.484;2023-02-13T06:16:35;-2.00;99.90
19952;DHT22;10137;49.406;19.484;2023-02-13T06:19:03;-2.00;99.90
19952;DHT22;10137;49.406;19.484;2023-02-13T06:21:33;-2.00;99.90
19952;DHT22;10137;49.406;19.484;2023-02-13T06:24:04;-2.10;99.90
19952;DHT22;10137;49.406;19.484;2023-02-13T06:26:36;-2.00;99.90
19952;DHT22;10137;49.406;19.484;2023-02-13T06:29:04;-2.00;99.90
19952;DHT22;10137;49.406;19.484;2023-02-13T06:31:31;-2.00;99.90
19952;DHT22;10137;49.406;19.484;2023-02-13T06:33:59;-2.00;99.90
19952;DHT22;10137;49.406;19.484;2023-02-13T06:36:27;-1.90;99.90
19952;DHT22;10137;49.406;19.484;2023-02-13T06:38:57;-1.90;99.90
19952;DHT22;10137;49.406;19.484;2023-02-13T06:41:25;-1.90;99.90
19952;DHT22;10137;49.406;19.484;2023-02-13T06:43:53;-1.80;99.90
19952;DHT22;10137;49.406;19.484;2023-02-13T06:46:21;-1.80;99.90
19952;DHT22;10137;49.406;19.484;2023-02-13T06:48:49;-1.80;99.90
19952;DHT22;10137;49.406;19.484;2023-02-13T06:51:16;-1.80;99.90
19952;DHT22;10137;49.406;19.484;2023-02-13T06:53:44;-1.80;99.90
19952;DHT22;10137;49.406;19.484;2023-02-13T06:56:14;-1.80;99.90
19952;DHT22;10137;49.406;19.484;2023-02-13T06:58:42;-1.80;99.90
19952;DHT22;10137;49.406;19.484;2023-02-13T07:01:11;-1.80;99.90
19952;DHT22;10137;49.406;19.484;2023-02-13T07:03:39;-1.80;99.90
19952;DHT22;10137;49.406;19.484;2023-02-13T07:06:09;-1.80;99.90
19952;DHT22;10137;49.406;19.484;2023-02-13T07:08:36;-1.80;99.90
19952;DHT22;10137;49.406;19.484;2023-02-13T07:11:04;-1.80;99.90
19952;DHT22;10137;49.406;19.484;2023-02-13T07:13:33;-1.90;99.90
19952;DHT22;10137;49.406;19.484;2023-02-13T07:16:02;-1.80;99.90
19952;DHT22;10137;49.406;19.484;2023-02-13T07:18:33;-1.80;99.90
19952;DHT22;10137;49.406;19.484;2023-02-13T07:21:01;-1.70;99.90
19952;DHT22;10137;49.406;19.484;2023-02-13T07:23:29;-1.60;99.90
19952;DHT22;10137;49.406;19.484;2023-02-13T07:25:58;-1.60;99.90
19952;DHT22;10137;49.406;19.484;2023-02-13T07:28:27;-1.60;99.90
19952;DHT22;10137;49.406;19.484;2023-02-13T07:30:56;-1.70;99.90
19952;DHT22;10137;49.406;19.484;2023-02-13T07:33:23;-1.70;99.90
19952;DHT22;10137;49.406;19.484;2023-02-13T07:35:51;-1.60;99.90
19952;DHT22;10137;49.406;19.484;2023-02-13T07:38:19;-1.50;99.90
19952;DHT22;10137;49.406;19.484;2023-02-13T07:40:46;-1.50;99.90
19952;DHT22;10137;49.406;19.484;2023-02-13T07:43:13;-1.50;99.90
19952;DHT22;10137;49.406;19.484;2023-02-13T07:45:40;-1.40;99.90
19952;DHT22;10137;49.406;19.484;2023-02-13T07:48:16;-1.40;99.90
19952;DHT22;10137;49.406;19.484;2023-02-13T07:50:43;-1.40;99.90
19952;DHT22;10137;49.406;19.484;2023-02-13T07:53:10;-1.30;99.90
19952;DHT22;10137;49.406;19.484;2023-02-13T07:55:39;-1.30;99.90
19952;DHT22;10137;49.406;19.484;2023-02-13T07:58:06;-1.40;99.90
19952;DHT22;10137;49.406;19.484;2023-02-13T08:00:34;-1.40;99.90
19952;DHT22;10137;49.406;19.484;2023-02-13T08:03:03;-1.30;99.90
19952;DHT22;10137;49.406;19.484;2023-02-13T08:05:32;-1.30;99.90
19952;DHT22;10137;49.406;19.484;2023-02-13T08:08:01;-1.20;99.90
19952;DHT22;10137;49.406;19.484;2023-02-13T08:10:30;-1.10;99.90
19952;DHT22;10137;49.406;19.484;2023-02-13T08:13:16;-1.10;99.90
19952;DHT22;10137;49.406;19.484;2023-02-13T08:15:44;-1.00;99.90
19952;DHT22;10137;49.406;19.484;2023-02-13T08:18:12;-1.00;99.90
19952;DHT22;10137;49.406;19.484;2023-02-13T08:20:43;-0.90;99.90
19952;DHT22;10137;49.406;19.484;2023-02-13T08:23:11;-0.80;99.90
19952;DHT22;10137;49.406;19.484;2023-02-13T08:25:40;-0.70;99.90
19952;DHT22;10137;49.406;19.484;2023-02-13T08:28:10;-0.70;99.90
19952;DHT22;10137;49.406;19.484;2023-02-13T08:30:38;-0.60;99.90
19952;DHT22;10137;49.406;19.484;2023-02-13T08:33:05;-0.50;99.90
19952;DHT22;10137;49.406;19.484;2023-02-13T08:35:33;-0.40;99.90
19952;DHT22;10137;49.406;19.484;2023-02-13T08:38:03;-0.40;99.90
19952;DHT22;10137;49.406;19.484;2023-02-13T08:40:31;-0.50;99.90
19952;DHT22;10137;49.406;19.484;2023-02-13T08:43:00;-0.50;99.90
19952;DHT22;10137;49.406;19.484;2023-02-13T08:45:29;-0.50;99.90
19952;DHT22;10137;49.406;19.484;2023-02-13T08:47:56;-0.40;99.90
19952;DHT22;10137;49.406;19.484;2023-02-13T08:50:26;-0.40;99.90
19952;DHT22;10137;49.406;19.484;2023-02-13T08:52:57;-0.40;99.90
19952;DHT22;10137;49.406;19.484;2023-02-13T08:55:27;-0.40;99.90
19952;DHT22;10137;49.406;19.484;2023-02-13T08:57:59;-0.30;99.90
19952;DHT22;10137;49.406;19.484;2023-02-13T09:00:28;-0.20;99.90
19952;DHT22;10137;49.406;19.484;2023-02-13T09:02:59;0.00;99.90
19952;DHT22;10137;49.406;19.484;2023-02-13T09:05:28;0.20;99.90
19952;DHT22;10137;49.406;19.484;2023-02-13T09:07:59;0.40;99.90
19952;DHT22;10137;49.406;19.484;2023-02-13T09:10:30;0.60;99.90
19952;DHT22;10137;49.406;19.484;2023-02-13T09:12:58;0.80;99.90
19952;DHT22;10137;49.406;19.484;2023-02-13T09:15:28;1.00;99.90
19952;DHT22;10137;49.406;19.484;2023-02-13T09:17:55;1.20;99.90
19952;DHT22;10137;49.406;19.484;2023-02-13T09:20:23;1.30;99.90
19952;DHT22;10137;49.406;19.484;2023-02-13T09:22:50;1.50;99.90
19952;DHT22;10137;49.406;19.484;2023-02-13T09:25:19;1.70;99.90
19952;DHT22;10137;49.406;19.484;2023-02-13T09:27:49;1.90;99.90
19952;DHT22;10137;49.406;19.484;2023-02-13T09:30:17;2.10;99.90
19952;DHT22;10137;49.406;19.484;2023-02-13T09:32:48;2.10;99.90
19952;DHT22;10137;49.406;19.484;2023-02-13T09:35:16;2.10;99.90
19952;DHT22;10137;49.406;19.484;2023-02-13T09:37:45;2.20;99.90
19952;DHT22;10137;49.406;19.484;2023-02-13T09:40:19;2.40;99.90
19952;DHT22;10137;49.406;19.484;2023-02-13T09:42:49;2.40;99.90
19952;DHT22;10137;49.406;19.484;2023-02-13T09:45:19;2.40;99.90
19952;DHT22;10137;49.406;19.484;2023-02-13T09:47:47;2.60;99.90
19952;DHT22;10137;49.406;19.484;2023-02-13T09:50:18;2.80;99.90
19952;DHT22;10137;49.406;19.484;2023-02-13T09:52:50;3.00;99.90
19952;DHT22;10137;49.406;19.484;2023-02-13T09:55:21;3.20;99.90
19952;DHT22;10137;49.406;19.484;2023-02-13T09:57:58;3.30;99.90
19952;DHT22;10137;49.406;19.484;2023-02-13T10:00:33;3.40;99.90
19952;DHT22;10137;49.406;19.484;2023-02-13T10:03:15;3.50;99.90
19952;DHT22;10137;49.406;19.484;2023-02-13T10:05:56;3.50;99.90
19952;DHT22;10137;49.406;19.484;2023-02-13T10:08:37;3.50;99.90
19952;DHT22;10137;49.406;19.484;2023-02-13T10:11:15;3.60;99.90
19952;DHT22;10137;49.406;19.484;2023-02-13T10:14:00;3.60;99.90
19952;DHT22;10137;49.406;19.484;2023-02-13T10:16:32;3.80;99.90
19952;DHT22;10137;49.406;19.484;2023-02-13T10:19:03;4.10;99.90
19952;DHT22;10137;49.406;19.484;2023-02-13T10:21:36;4.20;99.90
19952;DHT22;10137;49.406;19.484;2023-02-13T10:24:13;4.40;99.90
19952;DHT22;10137;49.406;19.484;2023-02-13T10:26:47;4.50;99.90
19952;DHT22;10137;49.406;19.484;2023-02-13T10:29:21;4.60;99.90
19952;DHT22;10137;49.406;19.484;2023-02-13T10:32:10;4.70;99.90
19952;DHT22;10137;49.406;19.484;2023-02-13T10:34:42;4.70;99.90
19952;DHT22;10137;49.406;19.484;2023-02-13T10:37:14;4.70;99.90
19952;DHT22;10137;49.406;19.484;2023-02-13T10:39:48;4.60;99.90
19952;DHT22;10137;49.406;19.484;2023-02-13T10:42:21;4.50;99.90
19952;DHT22;10137;49.406;19.484;2023-02-13T10:45:02;4.30;99.90
19952;DHT22;10137;49.406;19.484;2023-02-13T10:47:53;4.30;99.90
19952;DHT22;10137;49.406;19.484;2023-02-13T10:50:29;4.00;99.90
19952;DHT22;10137;49.406;19.484;2023-02-13T10:53:12;4.00;99.90
19952;DHT22;10137;49.406;19.484;2023-02-13T10:55:58;4.00;99.90
19952;DHT22;10137;49.406;19.484;2023-02-13T10:58:39;4.00;99.90
19952;DHT22;10137;49.406;19.484;2023-02-13T11:01:15;3.90;99.90
19952;DHT22;10137;49.406;19.484;2023-02-13T11:03:44;3.90;99.90
19952;DHT22;10137;49.406;19.484;2023-02-13T11:06:15;3.90;99.90
19952;DHT22;10137;49.406;19.484;2023-02-13T11:08:46;3.80;99.90
19952;DHT22;10137;49.406;19.484;2023-02-13T11:11:30;3.90;99.90
19952;DHT22;10137;49.406;19.484;2023-02-13T11:14:19;3.90;99.90
19952;DHT22;10137;49.406;19.484;2023-02-13T11:16:58;4.00;99.90
19952;DHT22;10137;49.406;19.484;2023-02-13T11:19:32;4.10;99.90
19952;DHT22;10137;49.406;19.484;2023-02-13T11:22:04;4.10;99.90
19952;DHT22;10137;49.406;19.484;2023-02-13T11:24:33;4.10;99.90
19952;DHT22;10137;49.406;19.484;2023-02-13T11:27:06;4.10;99.90
19952;DHT22;10137;49.406;19.484;2023-02-13T11:29:51;4.20;99.90
19952;DHT22;10137;49.406;19.484;2023-02-13T11:32:24;4.30;99.90
19952;DHT22;10137;49.406;19.484;2023-02-13T11:34:59;4.30;99.90
19952;DHT22;10137;49.406;19.484;2023-02-13T11:37:43;4.40;99.90
19952;DHT22;10137;49.406;19.484;2023-02-13T11:40:29;4.50;99.90
19952;DHT22;10137;49.406;19.484;2023-02-13T11:42:58;4.40;99.90
19952;DHT22;10137;49.406;19.484;2023-02-13T11:45:27;4.40;99.90
19952;DHT22;10137;49.406;19.484;2023-02-13T11:47:56;4.40;99.90
19952;DHT22;10137;49.406;19.484;2023-02-13T11:50:29;4.40;99.90
19952;DHT22;10137;49.406;19.484;2023-02-13T11:52:59;4.40;99.90
19952;DHT22;10137;49.406;19.484;2023-02-13T11:55:31;4.50;99.90
19952;DHT22;10137;49.406;19.484;2023-02-13T11:58:01;4.60;99.90
19952;DHT22;10137;49.406;19.484;2023-02-13T12:00:33;4.70;99.90
19952;DHT22;10137;49.406;19.484;2023-02-13T12:03:26;4.80;99.90
19952;DHT22;10137;49.406;19.484;2023-02-13T12:06:03;4.80;99.90
19952;DHT22;10137;49.406;19.484;2023-02-13T12:08:34;4.90;99.90
19952;DHT22;10137;49.406;19.484;2023-02-13T12:11:16;4.90;99.90
19952;DHT22;10137;49.406;19.484;2023-02-13T12:13:45;4.90;99.90
19952;DHT22;10137;49.406;19.484;2023-02-13T12:16:24;4.90;99.90
19952;DHT22;10137;49.406;19.484;2023-02-13T12:18:58;5.00;99.90
19952;DHT22;10137;49.406;19.484;2023-02-13T12:21:44;5.10;99.90
19952;DHT22;10137;49.406;19.484;2023-02-13T12:24:28;5.10;99.90
19952;DHT22;10137;49.406;19.484;2023-02-13T12:27:05;5.10;99.90
19952;DHT22;10137;49.406;19.484;2023-02-13T12:30:02;5.10;99.90
19952;DHT22;10137;49.406;19.484;2023-02-13T12:32:40;5.20;99.90
19952;DHT22;10137;49.406;19.484;2023-02-13T12:35:36;5.20;99.90
19952;DHT22;10137;49.406;19.484;2023-02-13T12:38:15;5.10;99.90
19952;DHT22;10137;49.406;19.484;2023-02-13T12:40:59;5.10;99.90
19952;DHT22;10137;49.406;19.484;2023-02-13T12:46:38;5.20;99.90
19952;DHT22;10137;49.406;19.484;2023-02-13T12:52:20;5.30;99.90
19952;DHT22;10137;49.406;19.484;2023-02-13T12:55:10;5.20;99.90
19952;DHT22;10137;49.406;19.484;2023-02-13T12:57:53;5.20;99.90
19952;DHT22;10137;49.406;19.484;2023-02-13T13:00:33;5.10;99.90
19952;DHT22;10137;49.406;19.484;2023-02-13T13:06:27;5.10;99.90
19952;DHT22;10137;49.406;19.484;2023-02-13T13:09:44;5.10;99.90
19952;DHT22;10137;49.406;19.484;2023-02-13T13:12:24;5.10;99.90
19952;DHT22;10137;49.406;19.484;2023-02-13T13:14:58;5.20;99.90
19952;DHT22;10137;49.406;19.484;2023-02-13T13:17:42;5.10;99.90
19952;DHT22;10137;49.406;19.484;2023-02-13T13:20:31;5.10;99.90
19952;DHT22;10137;49.406;19.484;2023-02-13T13:23:05;5.10;99.90
19952;DHT22;10137;49.406;19.484;2023-02-13T13:25:43;5.10;99.90
19952;DHT22;10137;49.406;19.484;2023-02-13T13:28:18;5.10;99.90
19952;DHT22;10137;49.406;19.484;2023-02-13T13:30:47;5.10;99.90
19952;DHT22;10137;49.406;19.484;2023-02-13T13:33:20;5.10;99.90
19952;DHT22;10137;49.406;19.484;2023-02-13T13:35:57;5.10;99.90
19952;DHT22;10137;49.406;19.484;2023-02-13T13:38:38;5.10;99.90
19952;DHT22;10137;49.406;19.484;2023-02-13T13:41:13;5.00;99.90
19952;DHT22;10137;49.406;19.484;2023-02-13T13:43:59;4.90;99.90
19952;DHT22;10137;49.406;19.484;2023-02-13T13:46:35;4.80;99.90
19952;DHT22;10137;49.406;19.484;2023-02-13T13:49:21;4.70;99.90
19952;DHT22;10137;49.406;19.484;2023-02-13T13:51:53;4.70;99.90
19952;DHT22;10137;49.406;19.484;2023-02-13T13:54:40;4.80;99.90
19952;DHT22;10137;49.406;19.484;2023-02-13T13:57:12;4.80;99.90
19952;DHT22;10137;49.406;19.484;2023-02-13T14:02:47;4.90;99.90
19952;DHT22;10137;49.406;19.484;2023-02-13T14:05:22;4.90;99.90
19952;DHT22;10137;49.406;19.484;2023-02-13T14:07:52;4.80;99.90
19952;DHT22;10137;49.406;19.484;2023-02-13T14:13:35;4.70;99.90
19952;DHT22;10137;49.406;19.484;2023-02-13T14:16:05;4.70;99.90
19952;DHT22;10137;49.406;19.484;2023-02-13T14:18:33;4.80;99.90
19952;DHT22;10137;49.406;19.484;2023-02-13T14:21:03;4.80;99.90
19952;DHT22;10137;49.406;19.484;2023-02-13T14:23:43;4.80;99.90
19952;DHT22;10137;49.406;19.484;2023-02-13T14:26:34;4.90;99.90
19952;DHT22;10137;49.406;19.484;2023-02-13T14:29:23;4.90;99.90
19952;DHT22;10137;49.406;19.484;2023-02-13T14:31:58;4.90;99.90
19952;DHT22;10137;49.406;19.484;2023-02-13T14:34:29;4.80;99.90
19952;DHT22;10137;49.406;19.484;2023-02-13T14:37:14;4.90;99.90
19952;DHT22;10137;49.406;19.484;2023-02-13T14:43:31;4.90;99.90
19952;DHT22;10137;49.406;19.484;2023-02-13T14:46:15;4.80;99.90
19952;DHT22;10137;49.406;19.484;2023-02-13T14:48:54;4.70;99.90
19952;DHT22;10137;49.406;19.484;2023-02-13T14:51:29;4.80;99.90
19952;DHT22;10137;49.406;19.484;2023-02-13T14:54:03;4.70;99.90
19952;DHT22;10137;49.406;19.484;2023-02-13T14:56:32;4.70;99.90
19952;DHT22;10137;49.406;19.484;2023-02-13T14:59:09;4.70;99.90
19952;DHT22;10137;49.406;19.484;2023-02-13T15:01:45;4.70;99.90
19952;DHT22;10137;49.406;19.484;2023-02-13T15:04:17;4.60;99.90
19952;DHT22;10137;49.406;19.484;2023-02-13T15:06:48;4.60;99.90
19952;DHT22;10137;49.406;19.484;2023-02-13T15:09:27;4.50;99.90
19952;DHT22;10137;49.406;19.484;2023-02-13T15:11:57;4.50;99.90
19952;DHT22;10137;49.406;19.484;2023-02-13T15:14:30;4.50;99.90
19952;DHT22;10137;49.406;19.484;2023-02-13T15:17:06;4.50;99.90
19952;DHT22;10137;49.406;19.484;2023-02-13T15:19:42;4.50;99.90
19952;DHT22;10137;49.406;19.484;2023-02-13T15:22:19;4.50;99.90
19952;DHT22;10137;49.406;19.484;2023-02-13T15:24:48;4.30;99.90
19952;DHT22;10137;49.406;19.484;2023-02-13T15:27:19;4.30;99.90
19952;DHT22;10137;49.406;19.484;2023-02-13T15:29:58;4.30;99.90
19952;DHT22;10137;49.406;19.484;2023-02-13T15:32:31;4.30;99.90
19952;DHT22;10137;49.406;19.484;2023-02-13T15:34:59;4.20;99.90
19952;DHT22;10137;49.406;19.484;2023-02-13T15:37:29;4.20;99.90
19952;DHT22;10137;49.406;19.484;2023-02-13T15:40:23;4.20;99.90
19952;DHT22;10137;49.406;19.484;2023-02-13T15:42:51;4.20;99.90
19952;DHT22;10137;49.406;19.484;2023-02-13T15:45:21;4.10;99.90
19952;DHT22;10137;49.406;19.484;2023-02-13T15:47:51;4.10;99.90
19952;DHT22;10137;49.406;19.484;2023-02-13T15:50:28;4.10;99.90
19952;DHT22;10137;49.406;19.484;2023-02-13T15:53:01;4.00;99.90
19952;DHT22;10137;49.406;19.484;2023-02-13T15:55:32;4.00;99.90
19952;DHT22;10137;49.406;19.484;2023-02-13T15:58:04;4.00;99.90
19952;DHT22;10137;49.406;19.484;2023-02-13T16:00:33;3.90;99.90
19952;DHT22;10137;49.406;19.484;2023-02-13T16:03:04;3.90;99.90
19952;DHT22;10137;49.406;19.484;2023-02-13T16:05:37;3.60;99.90
19952;DHT22;10137;49.406;19.484;2023-02-13T16:08:27;3.50;99.90
19952;DHT22;10137;49.406;19.484;2023-02-13T16:11:20;3.40;99.90
19952;DHT22;10137;49.406;19.484;2023-02-13T16:14:11;3.40;99.90
19952;DHT22;10137;49.406;19.484;2023-02-13T16:16:48;3.30;99.90
19952;DHT22;10137;49.406;19.484;2023-02-13T16:19:28;3.40;99.90
19952;DHT22;10137;49.406;19.484;2023-02-13T16:22:01;3.30;99.90
19952;DHT22;10137;49.406;19.484;2023-02-13T16:24:30;3.40;99.90
19952;DHT22;10137;49.406;19.484;2023-02-13T16:26:57;3.50;99.90